Battletown, Kentucky
Current Conditions -  °F | °C
As of 9:58 PM on Wednesday 22 Oct 2014 (Local Time) from KFTK Reporting Station
Clear Clear  
Wind Chill: 48°   Ceiling: Unl
Heat Index: 48°   Visibility: 10mi
Dew Point: 41°   Wind: 3mph
Humidity: 76%   Direction: 60°ENE
Pressure: 30.23"   Gusts: NA
Location:  38.06°N, 86.29°W
Report Text: KFTK 230158Z 06003KT 10SM CLR 09/05 A3023 RMK AO2A SLP242 T00890049
Loading
Personal Weather Stations






























Interactive Weather Map
Tropical Storm Tracking
New forecast layout! Learn more

10-Day Weather Forecast

Advertisements
Track Severe Weather on mobile